sensor_id;sensor_type;location;lat;lon;timestamp;temperature;humidity
67820;DHT22;54618;52.018;5.576;2023-04-07T00:02:04;17.70;48.90
67820;DHT22;54618;52.018;5.576;2023-04-07T00:04:30;17.70;48.90
67820;DHT22;54618;52.018;5.576;2023-04-07T00:06:55;17.70;48.90
67820;DHT22;54618;52.018;5.576;2023-04-07T00:09:21;17.70;48.90
67820;DHT22;54618;52.018;5.576;2023-04-07T00:11:47;17.70;48.90
67820;DHT22;54618;52.018;5.576;2023-04-07T00:14:13;17.70;48.90
67820;DHT22;54618;52.018;5.576;2023-04-07T00:16:38;17.70;48.90
67820;DHT22;54618;52.018;5.576;2023-04-07T00:19:04;17.70;48.90
67820;DHT22;54618;52.018;5.576;2023-04-07T00:21:29;17.70;49.00
67820;DHT22;54618;52.018;5.576;2023-04-07T00:23:55;17.60;48.90
67820;DHT22;54618;52.018;5.576;2023-04-07T00:26:21;17.60;48.90
67820;DHT22;54618;52.018;5.576;2023-04-07T00:28:46;17.60;48.90
67820;DHT22;54618;52.018;5.576;2023-04-07T00:31:12;17.60;48.90
67820;DHT22;54618;52.018;5.576;2023-04-07T00:33:38;17.60;48.90
67820;DHT22;54618;52.018;5.576;2023-04-07T00:36:03;17.60;48.90
67820;DHT22;54618;52.018;5.576;2023-04-07T00:38:29;17.60;48.90
67820;DHT22;54618;52.018;5.576;2023-04-07T00:40:58;17.60;48.90
67820;DHT22;54618;52.018;5.576;2023-04-07T00:43:24;17.60;48.90
67820;DHT22;54618;52.018;5.576;2023-04-07T00:45:50;17.60;48.90
67820;DHT22;54618;52.018;5.576;2023-04-07T00:48:16;17.60;48.90
67820;DHT22;54618;52.018;5.576;2023-04-07T00:50:42;17.50;48.80
67820;DHT22;54618;52.018;5.576;2023-04-07T00:53:09;17.60;48.90
67820;DHT22;54618;52.018;5.576;2023-04-07T00:55:35;17.60;48.90
67820;DHT22;54618;52.018;5.576;2023-04-07T00:58:01;17.60;49.00
67820;DHT22;54618;52.018;5.576;2023-04-07T01:00:27;17.50;48.90
67820;DHT22;54618;52.018;5.576;2023-04-07T01:03:05;17.50;48.90
67820;DHT22;54618;52.018;5.576;2023-04-07T01:05:41;17.50;49.10
67820;DHT22;54618;52.018;5.576;2023-04-07T01:11:08;17.50;49.30
67820;DHT22;54618;52.018;5.576;2023-04-07T01:13:47;17.50;49.10
67820;DHT22;54618;52.018;5.576;2023-04-07T01:16:18;17.50;48.90
67820;DHT22;54618;52.018;5.576;2023-04-07T01:18:47;17.50;48.90
67820;DHT22;54618;52.018;5.576;2023-04-07T01:21:16;17.50;48.90
67820;DHT22;54618;52.018;5.576;2023-04-07T01:23:59;17.50;48.90
67820;DHT22;54618;52.018;5.576;2023-04-07T01:26:29;17.50;49.10
67820;DHT22;54618;52.018;5.576;2023-04-07T01:29:10;17.50;48.90
67820;DHT22;54618;52.018;5.576;2023-04-07T01:31:40;17.50;49.20
67820;DHT22;54618;52.018;5.576;2023-04-07T01:34:09;17.50;48.90
67820;DHT22;54618;52.018;5.576;2023-04-07T01:36:35;17.40;48.90
67820;DHT22;54618;52.018;5.576;2023-04-07T01:39:01;17.50;48.90
67820;DHT22;54618;52.018;5.576;2023-04-07T01:41:27;17.40;48.90
67820;DHT22;54618;52.018;5.576;2023-04-07T01:43:53;17.40;48.90
67820;DHT22;54618;52.018;5.576;2023-04-07T01:46:19;17.40;48.80
67820;DHT22;54618;52.018;5.576;2023-04-07T01:48:46;17.40;48.90
67820;DHT22;54618;52.018;5.576;2023-04-07T01:51:13;17.40;49.50
67820;DHT22;54618;52.018;5.576;2023-04-07T01:53:46;17.40;48.90
67820;DHT22;54618;52.018;5.576;2023-04-07T01:56:12;17.40;48.90
67820;DHT22;54618;52.018;5.576;2023-04-07T01:58:37;17.40;48.90
67820;DHT22;54618;52.018;5.576;2023-04-07T02:01:03;17.40;48.90
67820;DHT22;54618;52.018;5.576;2023-04-07T02:03:43;17.40;48.90
67820;DHT22;54618;52.018;5.576;2023-04-07T02:06:14;17.40;49.20
67820;DHT22;54618;52.018;5.576;2023-04-07T02:08:43;17.40;48.90
67820;DHT22;54618;52.018;5.576;2023-04-07T02:11:12;17.40;49.90
67820;DHT22;54618;52.018;5.576;2023-04-07T02:13:38;17.40;48.90
67820;DHT22;54618;52.018;5.576;2023-04-07T02:16:06;17.30;48.90
67820;DHT22;54618;52.018;5.576;2023-04-07T02:18:32;17.30;48.90
67820;DHT22;54618;52.018;5.576;2023-04-07T02:20:59;17.30;48.90
67820;DHT22;54618;52.018;5.576;2023-04-07T02:23:26;17.30;48.90
67820;DHT22;54618;52.018;5.576;2023-04-07T02:25:55;17.30;48.90
67820;DHT22;54618;52.018;5.576;2023-04-07T02:28:22;17.30;48.90
67820;DHT22;54618;52.018;5.576;2023-04-07T02:30:47;17.30;48.90
67820;DHT22;54618;52.018;5.576;2023-04-07T02:33:13;17.30;48.90
67820;DHT22;54618;52.018;5.576;2023-04-07T02:35:38;17.30;48.90
67820;DHT22;54618;52.018;5.576;2023-04-07T02:38:04;17.30;49.00
67820;DHT22;54618;52.018;5.576;2023-04-07T02:40:30;17.30;48.90
67820;DHT22;54618;52.018;5.576;2023-04-07T02:42:56;17.30;48.90
67820;DHT22;54618;52.018;5.576;2023-04-07T02:45:21;17.30;49.00
67820;DHT22;54618;52.018;5.576;2023-04-07T02:47:47;17.30;49.00
67820;DHT22;54618;52.018;5.576;2023-04-07T02:50:12;17.30;49.00
67820;DHT22;54618;52.018;5.576;2023-04-07T02:52:38;17.30;49.00
67820;DHT22;54618;52.018;5.576;2023-04-07T02:55:04;17.30;49.00
67820;DHT22;54618;52.018;5.576;2023-04-07T02:57:29;17.30;49.00
67820;DHT22;54618;52.018;5.576;2023-04-07T02:59:55;17.20;48.90
67820;DHT22;54618;52.018;5.576;2023-04-07T03:02:22;17.30;49.00
67820;DHT22;54618;52.018;5.576;2023-04-07T03:04:50;17.20;48.90
67820;DHT22;54618;52.018;5.576;2023-04-07T03:07:16;17.30;49.00
67820;DHT22;54618;52.018;5.576;2023-04-07T03:09:42;17.20;49.00
67820;DHT22;54618;52.018;5.576;2023-04-07T03:12:07;17.20;49.00
67820;DHT22;54618;52.018;5.576;2023-04-07T03:14:33;17.20;49.00
67820;DHT22;54618;52.018;5.576;2023-04-07T03:16:58;17.20;49.00
67820;DHT22;54618;52.018;5.576;2023-04-07T03:19:24;17.20;49.00
67820;DHT22;54618;52.018;5.576;2023-04-07T03:21:50;17.20;49.00
67820;DHT22;54618;52.018;5.576;2023-04-07T03:24:15;17.20;49.00
67820;DHT22;54618;52.018;5.576;2023-04-07T03:26:41;17.20;49.10
67820;DHT22;54618;52.018;5.576;2023-04-07T03:29:06;17.20;49.00
67820;DHT22;54618;52.018;5.576;2023-04-07T03:31:32;17.20;49.00
67820;DHT22;54618;52.018;5.576;2023-04-07T03:33:57;17.20;49.00
67820;DHT22;54618;52.018;5.576;2023-04-07T03:36:23;17.20;49.00
67820;DHT22;54618;52.018;5.576;2023-04-07T03:38:49;17.20;49.00
67820;DHT22;54618;52.018;5.576;2023-04-07T03:41:14;17.20;49.00
67820;DHT22;54618;52.018;5.576;2023-04-07T03:43:40;17.20;49.10
67820;DHT22;54618;52.018;5.576;2023-04-07T03:46:06;17.20;49.10
67820;DHT22;54618;52.018;5.576;2023-04-07T03:48:32;17.10;49.00
67820;DHT22;54618;52.018;5.576;2023-04-07T03:50:58;17.20;49.10
67820;DHT22;54618;52.018;5.576;2023-04-07T03:53:23;17.20;49.10
67820;DHT22;54618;52.018;5.576;2023-04-07T03:55:49;17.10;49.10
67820;DHT22;54618;52.018;5.576;2023-04-07T03:58:15;17.10;49.10
67820;DHT22;54618;52.018;5.576;2023-04-07T04:00:40;17.10;49.10
67820;DHT22;54618;52.018;5.576;2023-04-07T04:03:06;17.10;49.10
67820;DHT22;54618;52.018;5.576;2023-04-07T04:05:31;17.10;49.10
67820;DHT22;54618;52.018;5.576;2023-04-07T04:07:57;17.10;48.90
67820;DHT22;54618;52.018;5.576;2023-04-07T04:10:22;17.30;48.60
67820;DHT22;54618;52.018;5.576;2023-04-07T04:12:48;17.60;48.30
67820;DHT22;54618;52.018;5.576;2023-04-07T04:15:14;17.90;47.80
67820;DHT22;54618;52.018;5.576;2023-04-07T04:17:40;18.10;47.50
67820;DHT22;54618;52.018;5.576;2023-04-07T04:20:07;18.30;47.40
67820;DHT22;54618;52.018;5.576;2023-04-07T04:22:32;18.30;47.40
67820;DHT22;54618;52.018;5.576;2023-04-07T04:24:58;18.30;47.40
67820;DHT22;54618;52.018;5.576;2023-04-07T04:27:24;18.20;47.40
67820;DHT22;54618;52.018;5.576;2023-04-07T04:29:50;18.10;47.50
67820;DHT22;54618;52.018;5.576;2023-04-07T04:32:16;18.10;47.50
67820;DHT22;54618;52.018;5.576;2023-04-07T04:34:42;18.20;47.60
67820;DHT22;54618;52.018;5.576;2023-04-07T04:37:08;18.30;47.50
67820;DHT22;54618;52.018;5.576;2023-04-07T04:39:33;18.30;47.50
67820;DHT22;54618;52.018;5.576;2023-04-07T04:41:59;18.40;47.50
67820;DHT22;54618;52.018;5.576;2023-04-07T04:44:25;18.40;47.30
67820;DHT22;54618;52.018;5.576;2023-04-07T04:46:51;18.50;47.30
67820;DHT22;54618;52.018;5.576;2023-04-07T04:49:17;18.50;47.30
67820;DHT22;54618;52.018;5.576;2023-04-07T04:51:43;18.50;47.20
67820;DHT22;54618;52.018;5.576;2023-04-07T04:54:09;18.60;47.20
67820;DHT22;54618;52.018;5.576;2023-04-07T04:56:34;18.50;47.20
67820;DHT22;54618;52.018;5.576;2023-04-07T04:59:04;18.50;47.30
67820;DHT22;54618;52.018;5.576;2023-04-07T05:01:30;18.40;47.30
67820;DHT22;54618;52.018;5.576;2023-04-07T05:03:56;18.40;47.40
67820;DHT22;54618;52.018;5.576;2023-04-07T05:06:22;18.30;47.50
67820;DHT22;54618;52.018;5.576;2023-04-07T05:08:47;18.20;47.40
67820;DHT22;54618;52.018;5.576;2023-04-07T05:11:13;18.30;47.60
67820;DHT22;54618;52.018;5.576;2023-04-07T05:13:39;18.30;47.60
67820;DHT22;54618;52.018;5.576;2023-04-07T05:16:05;18.20;47.60
67820;DHT22;54618;52.018;5.576;2023-04-07T05:18:31;18.30;47.60
67820;DHT22;54618;52.018;5.576;2023-04-07T05:20:56;18.30;47.60
67820;DHT22;54618;52.018;5.576;2023-04-07T05:23:22;18.30;48.20
67820;DHT22;54618;52.018;5.576;2023-04-07T05:25:47;18.20;47.50
67820;DHT22;54618;52.018;5.576;2023-04-07T05:28:13;18.20;47.50
67820;DHT22;54618;52.018;5.576;2023-04-07T05:30:38;18.20;47.50
67820;DHT22;54618;52.018;5.576;2023-04-07T05:33:04;18.20;47.50
67820;DHT22;54618;52.018;5.576;2023-04-07T05:35:30;18.20;47.40
67820;DHT22;54618;52.018;5.576;2023-04-07T05:37:56;18.50;47.50
67820;DHT22;54618;52.018;5.576;2023-04-07T05:40:22;18.80;47.00
67820;DHT22;54618;52.018;5.576;2023-04-07T05:42:47;19.20;46.50
67820;DHT22;54618;52.018;5.576;2023-04-07T05:45:14;19.60;46.00
67820;DHT22;54618;52.018;5.576;2023-04-07T05:47:40;19.90;45.70
67820;DHT22;54618;52.018;5.576;2023-04-07T05:50:06;20.10;45.50
67820;DHT22;54618;52.018;5.576;2023-04-07T05:52:31;20.20;45.20
67820;DHT22;54618;52.018;5.576;2023-04-07T05:54:57;20.40;45.20
67820;DHT22;54618;52.018;5.576;2023-04-07T05:57:22;20.50;45.20
67820;DHT22;54618;52.018;5.576;2023-04-07T05:59:48;20.60;45.10
67820;DHT22;54618;52.018;5.576;2023-04-07T06:02:13;20.70;45.10
67820;DHT22;54618;52.018;5.576;2023-04-07T06:04:39;20.80;45.10
67820;DHT22;54618;52.018;5.576;2023-04-07T06:07:05;20.80;45.10
67820;DHT22;54618;52.018;5.576;2023-04-07T06:09:31;20.80;45.20
67820;DHT22;54618;52.018;5.576;2023-04-07T06:11:57;20.80;45.20
67820;DHT22;54618;52.018;5.576;2023-04-07T06:14:23;20.80;45.20
67820;DHT22;54618;52.018;5.576;2023-04-07T06:16:48;20.80;45.20
67820;DHT22;54618;52.018;5.576;2023-04-07T06:19:14;20.80;45.20
67820;DHT22;54618;52.018;5.576;2023-04-07T06:21:40;20.80;45.20
67820;DHT22;54618;52.018;5.576;2023-04-07T06:24:06;20.90;45.30
67820;DHT22;54618;52.018;5.576;2023-04-07T06:26:31;20.90;45.30
67820;DHT22;54618;52.018;5.576;2023-04-07T06:28:57;20.90;45.20
67820;DHT22;54618;52.018;5.576;2023-04-07T06:31:24;20.90;45.20
67820;DHT22;54618;52.018;5.576;2023-04-07T06:33:49;20.90;45.20
67820;DHT22;54618;52.018;5.576;2023-04-07T06:36:15;20.90;45.10
67820;DHT22;54618;52.018;5.576;2023-04-07T06:38:40;20.90;45.10
67820;DHT22;54618;52.018;5.576;2023-04-07T06:41:06;21.00;45.20
67820;DHT22;54618;52.018;5.576;2023-04-07T06:43:36;21.00;45.20
67820;DHT22;54618;52.018;5.576;2023-04-07T06:46:01;21.10;45.10
67820;DHT22;54618;52.018;5.576;2023-04-07T06:48:27;21.00;45.00
67820;DHT22;54618;52.018;5.576;2023-04-07T06:50:52;21.10;45.00
67820;DHT22;54618;52.018;5.576;2023-04-07T06:53:18;21.10;45.70
67820;DHT22;54618;52.018;5.576;2023-04-07T06:55:43;21.10;45.10
67820;DHT22;54618;52.018;5.576;2023-04-07T06:58:09;21.10;45.10
67820;DHT22;54618;52.018;5.576;2023-04-07T07:00:35;21.10;45.00
67820;DHT22;54618;52.018;5.576;2023-04-07T07:03:01;21.10;45.00
67820;DHT22;54618;52.018;5.576;2023-04-07T07:05:27;21.10;45.00
67820;DHT22;54618;52.018;5.576;2023-04-07T07:07:53;21.10;45.60
67820;DHT22;54618;52.018;5.576;2023-04-07T07:10:18;21.10;45.00
67820;DHT22;54618;52.018;5.576;2023-04-07T07:12:48;21.20;45.60
67820;DHT22;54618;52.018;5.576;2023-04-07T07:15:13;21.20;44.90
67820;DHT22;54618;52.018;5.576;2023-04-07T07:17:39;21.20;45.00
67820;DHT22;54618;52.018;5.576;2023-04-07T07:20:05;21.20;44.90
67820;DHT22;54618;52.018;5.576;2023-04-07T07:22:31;21.20;44.90
67820;DHT22;54618;52.018;5.576;2023-04-07T07:24:56;21.20;44.90
67820;DHT22;54618;52.018;5.576;2023-04-07T07:27:22;21.20;44.80
67820;DHT22;54618;52.018;5.576;2023-04-07T07:29:47;21.30;44.80
67820;DHT22;54618;52.018;5.576;2023-04-07T07:32:13;21.30;44.80
67820;DHT22;54618;52.018;5.576;2023-04-07T07:34:38;21.30;44.70
67820;DHT22;54618;52.018;5.576;2023-04-07T07:37:04;21.30;44.70
67820;DHT22;54618;52.018;5.576;2023-04-07T07:39:30;21.30;44.70
67820;DHT22;54618;52.018;5.576;2023-04-07T07:41:55;21.30;44.60
67820;DHT22;54618;52.018;5.576;2023-04-07T07:44:21;21.40;44.70
67820;DHT22;54618;52.018;5.576;2023-04-07T07:46:48;21.40;44.70
67820;DHT22;54618;52.018;5.576;2023-04-07T07:49:14;21.40;44.70
67820;DHT22;54618;52.018;5.576;2023-04-07T07:51:40;21.40;44.70
67820;DHT22;54618;52.018;5.576;2023-04-07T07:54:05;21.50;44.90
67820;DHT22;54618;52.018;5.576;2023-04-07T07:56:31;21.40;45.00
67820;DHT22;54618;52.018;5.576;2023-04-07T07:58:57;21.40;45.20
67820;DHT22;54618;52.018;5.576;2023-04-07T08:01:23;21.20;45.40
67820;DHT22;54618;52.018;5.576;2023-04-07T08:03:48;21.10;45.50
67820;DHT22;54618;52.018;5.576;2023-04-07T08:06:14;21.00;45.60
67820;DHT22;54618;52.018;5.576;2023-04-07T08:08:40;21.00;45.70
67820;DHT22;54618;52.018;5.576;2023-04-07T08:11:06;21.00;45.70
67820;DHT22;54618;52.018;5.576;2023-04-07T08:13:32;21.10;45.80
67820;DHT22;54618;52.018;5.576;2023-04-07T08:15:57;21.10;45.80
67820;DHT22;54618;52.018;5.576;2023-04-07T08:18:23;21.00;45.80
67820;DHT22;54618;52.018;5.576;2023-04-07T08:20:49;21.00;45.80
67820;DHT22;54618;52.018;5.576;2023-04-07T08:23:16;21.10;45.80
67820;DHT22;54618;52.018;5.576;2023-04-07T08:25:41;21.30;45.70
67820;DHT22;54618;52.018;5.576;2023-04-07T08:28:07;21.70;45.30
67820;DHT22;54618;52.018;5.576;2023-04-07T08:30:32;22.00;45.00
67820;DHT22;54618;52.018;5.576;2023-04-07T08:32:58;22.20;44.70
67820;DHT22;54618;52.018;5.576;2023-04-07T08:35:24;22.50;44.60
67820;DHT22;54618;52.018;5.576;2023-04-07T08:37:49;22.60;44.30
67820;DHT22;54618;52.018;5.576;2023-04-07T08:40:15;22.80;44.30
67820;DHT22;54618;52.018;5.576;2023-04-07T08:42:45;22.70;44.20
67820;DHT22;54618;52.018;5.576;2023-04-07T08:45:12;22.50;44.60
67820;DHT22;54618;52.018;5.576;2023-04-07T08:47:39;22.30;44.80
67820;DHT22;54618;52.018;5.576;2023-04-07T08:50:10;22.10;44.90
67820;DHT22;54618;52.018;5.576;2023-04-07T08:52:45;21.90;45.10
67820;DHT22;54618;52.018;5.576;2023-04-07T08:55:14;21.80;45.00
67820;DHT22;54618;52.018;5.576;2023-04-07T08:57:41;21.70;45.50
67820;DHT22;54618;52.018;5.576;2023-04-07T09:00:07;21.50;45.60
67820;DHT22;54618;52.018;5.576;2023-04-07T09:02:38;21.50;45.70
67820;DHT22;54618;52.018;5.576;2023-04-07T09:05:05;21.30;45.70
67820;DHT22;54618;52.018;5.576;2023-04-07T09:07:32;21.30;45.90
67820;DHT22;54618;52.018;5.576;2023-04-07T09:09:58;21.20;45.80
67820;DHT22;54618;52.018;5.576;2023-04-07T09:12:24;21.20;45.90
67820;DHT22;54618;52.018;5.576;2023-04-07T09:14:52;21.10;45.90
67820;DHT22;54618;52.018;5.576;2023-04-07T09:17:18;21.10;45.90
67820;DHT22;54618;52.018;5.576;2023-04-07T09:19:43;21.00;45.80
67820;DHT22;54618;52.018;5.576;2023-04-07T09:22:09;21.00;45.90
67820;DHT22;54618;52.018;5.576;2023-04-07T09:24:36;21.00;46.00
67820;DHT22;54618;52.018;5.576;2023-04-07T09:27:13;21.00;46.10
67820;DHT22;54618;52.018;5.576;2023-04-07T09:29:41;21.10;46.00
67820;DHT22;54618;52.018;5.576;2023-04-07T09:32:08;21.00;46.00
67820;DHT22;54618;52.018;5.576;2023-04-07T09:34:36;21.00;46.00
67820;DHT22;54618;52.018;5.576;2023-04-07T09:37:02;21.10;46.00
67820;DHT22;54618;52.018;5.576;2023-04-07T09:39:28;21.00;46.00
67820;DHT22;54618;52.018;5.576;2023-04-07T09:41:54;21.10;46.00
67820;DHT22;54618;52.018;5.576;2023-04-07T09:44:21;21.10;46.00
67820;DHT22;54618;52.018;5.576;2023-04-07T09:46:56;20.90;46.00
67820;DHT22;54618;52.018;5.576;2023-04-07T09:49:22;20.90;46.20
67820;DHT22;54618;52.018;5.576;2023-04-07T09:51:59;20.80;46.10
67820;DHT22;54618;52.018;5.576;2023-04-07T09:54:39;20.80;46.30
67820;DHT22;54618;52.018;5.576;2023-04-07T09:57:06;20.80;46.30
67820;DHT22;54618;52.018;5.576;2023-04-07T09:59:34;20.80;46.20
67820;DHT22;54618;52.018;5.576;2023-04-07T10:02:00;20.80;46.20
67820;DHT22;54618;52.018;5.576;2023-04-07T10:04:27;20.90;46.20
67820;DHT22;54618;52.018;5.576;2023-04-07T10:06:54;20.90;46.10
67820;DHT22;54618;52.018;5.576;2023-04-07T10:09:24;20.90;46.70
67820;DHT22;54618;52.018;5.576;2023-04-07T10:11:52;20.90;46.00
67820;DHT22;54618;52.018;5.576;2023-04-07T10:14:19;20.90;46.00
67820;DHT22;54618;52.018;5.576;2023-04-07T10:16:48;20.90;46.30
67820;DHT22;54618;52.018;5.576;2023-04-07T10:19:14;20.90;46.00
67820;DHT22;54618;52.018;5.576;2023-04-07T10:21:42;20.90;46.00
67820;DHT22;54618;52.018;5.576;2023-04-07T10:24:24;20.90;46.00
67820;DHT22;54618;52.018;5.576;2023-04-07T10:26:56;20.90;46.10
67820;DHT22;54618;52.018;5.576;2023-04-07T10:29:22;20.90;46.10
67820;DHT22;54618;52.018;5.576;2023-04-07T10:31:49;21.10;46.10
67820;DHT22;54618;52.018;5.576;2023-04-07T10:34:16;21.10;46.00
67820;DHT22;54618;52.018;5.576;2023-04-07T10:37:10;21.10;46.10
67820;DHT22;54618;52.018;5.576;2023-04-07T10:39:37;21.10;46.30
67820;DHT22;54618;52.018;5.576;2023-04-07T10:42:03;21.10;46.20
67820;DHT22;54618;52.018;5.576;2023-04-07T10:47:04;21.10;46.30
67820;DHT22;54618;52.018;5.576;2023-04-07T10:49:31;21.10;46.30
67820;DHT22;54618;52.018;5.576;2023-04-07T10:54:35;21.00;46.40
67820;DHT22;54618;52.018;5.576;2023-04-07T10:59:31;21.00;46.50
67820;DHT22;54618;52.018;5.576;2023-04-07T11:04:48;20.90;46.60
67820;DHT22;54618;52.018;5.576;2023-04-07T11:07:14;21.00;46.50
67820;DHT22;54618;52.018;5.576;2023-04-07T11:09:40;21.00;46.40
67820;DHT22;54618;52.018;5.576;2023-04-07T11:12:06;21.00;46.40
67820;DHT22;54618;52.018;5.576;2023-04-07T11:14:33;21.00;46.40
67820;DHT22;54618;52.018;5.576;2023-04-07T11:17:02;21.00;46.40
67820;DHT22;54618;52.018;5.576;2023-04-07T11:19:28;21.00;46.40
67820;DHT22;54618;52.018;5.576;2023-04-07T11:22:15;21.00;46.40
67820;DHT22;54618;52.018;5.576;2023-04-07T11:24:41;21.00;46.40
67820;DHT22;54618;52.018;5.576;2023-04-07T11:27:14;21.00;46.30
67820;DHT22;54618;52.018;5.576;2023-04-07T11:29:40;21.00;46.40
67820;DHT22;54618;52.018;5.576;2023-04-07T11:32:05;21.00;46.40
67820;DHT22;54618;52.018;5.576;2023-04-07T11:34:32;21.00;46.40
67820;DHT22;54618;52.018;5.576;2023-04-07T11:36:59;21.00;46.30
67820;DHT22;54618;52.018;5.576;2023-04-07T11:39:43;21.00;46.30
67820;DHT22;54618;52.018;5.576;2023-04-07T11:42:10;21.00;46.30
67820;DHT22;54618;52.018;5.576;2023-04-07T11:44:44;21.00;46.40
67820;DHT22;54618;52.018;5.576;2023-04-07T11:47:10;21.00;46.40
67820;DHT22;54618;52.018;5.576;2023-04-07T11:49:43;21.00;46.40
67820;DHT22;54618;52.018;5.576;2023-04-07T11:52:09;21.00;46.40
67820;DHT22;54618;52.018;5.576;2023-04-07T11:54:42;20.90;46.30
67820;DHT22;54618;52.018;5.576;2023-04-07T11:57:08;20.90;46.40
67820;DHT22;54618;52.018;5.576;2023-04-07T11:59:36;20.90;46.40
67820;DHT22;54618;52.018;5.576;2023-04-07T12:02:02;20.90;46.40
67820;DHT22;54618;52.018;5.576;2023-04-07T12:04:28;20.90;46.50
67820;DHT22;54618;52.018;5.576;2023-04-07T12:07:08;20.90;46.50
67820;DHT22;54618;52.018;5.576;2023-04-07T12:09:34;20.90;46.50
67820;DHT22;54618;52.018;5.576;2023-04-07T12:12:04;20.90;46.40
67820;DHT22;54618;52.018;5.576;2023-04-07T12:14:32;20.90;46.40
67820;DHT22;54618;52.018;5.576;2023-04-07T12:16:57;20.80;46.40
67820;DHT22;54618;52.018;5.576;2023-04-07T12:19:27;20.90;46.40
67820;DHT22;54618;52.018;5.576;2023-04-07T12:21:56;20.80;46.30
67820;DHT22;54618;52.018;5.576;2023-04-07T12:24:21;20.80;46.40
67820;DHT22;54618;52.018;5.576;2023-04-07T12:26:48;20.80;46.50
67820;DHT22;54618;52.018;5.576;2023-04-07T12:29:13;20.80;46.50
67820;DHT22;54618;52.018;5.576;2023-04-07T12:31:39;20.80;46.40
67820;DHT22;54618;52.018;5.576;2023-04-07T12:34:04;20.90;46.40
67820;DHT22;54618;52.018;5.576;2023-04-07T12:36:30;20.90;46.30
67820;DHT22;54618;52.018;5.576;2023-04-07T12:38:57;20.90;46.30
67820;DHT22;54618;52.018;5.576;2023-04-07T12:41:24;20.90;46.40
67820;DHT22;54618;52.018;5.576;2023-04-07T12:43:50;20.90;46.30
67820;DHT22;54618;52.018;5.576;2023-04-07T12:46:15;20.90;46.40
67820;DHT22;54618;52.018;5.576;2023-04-07T12:48:41;20.90;46.40
67820;DHT22;54618;52.018;5.576;2023-04-07T12:51:07;20.90;46.50
67820;DHT22;54618;52.018;5.576;2023-04-07T12:53:32;21.00;46.60
67820;DHT22;54618;52.018;5.576;2023-04-07T12:55:58;21.10;46.60
67820;DHT22;54618;52.018;5.576;2023-04-07T12:58:24;21.20;46.70
67820;DHT22;54618;52.018;5.576;2023-04-07T13:00:52;21.20;46.70
67820;DHT22;54618;52.018;5.576;2023-04-07T13:03:17;21.30;46.70
67820;DHT22;54618;52.018;5.576;2023-04-07T13:05:43;21.30;46.80
67820;DHT22;54618;52.018;5.576;2023-04-07T13:08:08;21.40;46.70
67820;DHT22;54618;52.018;5.576;2023-04-07T13:10:34;21.40;46.90
67820;DHT22;54618;52.018;5.576;2023-04-07T13:13:00;21.40;46.90
67820;DHT22;54618;52.018;5.576;2023-04-07T13:15:26;21.40;46.90
67820;DHT22;54618;52.018;5.576;2023-04-07T13:17:53;21.40;47.00
67820;DHT22;54618;52.018;5.576;2023-04-07T13:20:19;21.40;47.10
67820;DHT22;54618;52.018;5.576;2023-04-07T13:22:45;21.40;47.10
67820;DHT22;54618;52.018;5.576;2023-04-07T13:25:11;21.40;47.10
67820;DHT22;54618;52.018;5.576;2023-04-07T13:27:36;21.30;47.10
67820;DHT22;54618;52.018;5.576;2023-04-07T13:30:02;21.30;47.10
67820;DHT22;54618;52.018;5.576;2023-04-07T13:32:28;21.30;47.20
67820;DHT22;54618;52.018;5.576;2023-04-07T13:34:53;21.30;47.20
67820;DHT22;54618;52.018;5.576;2023-04-07T13:37:19;21.30;47.20
67820;DHT22;54618;52.018;5.576;2023-04-07T13:39:45;21.30;47.20
67820;DHT22;54618;52.018;5.576;2023-04-07T13:42:12;21.30;47.10
67820;DHT22;54618;52.018;5.576;2023-04-07T13:44:41;21.20;47.10
67820;DHT22;54618;52.018;5.576;2023-04-07T13:47:09;21.20;47.10
67820;DHT22;54618;52.018;5.576;2023-04-07T13:49:35;21.20;47.00
67820;DHT22;54618;52.018;5.576;2023-04-07T13:52:01;21.20;47.10
67820;DHT22;54618;52.018;5.576;2023-04-07T13:54:27;21.10;47.10
67820;DHT22;54618;52.018;5.576;2023-04-07T13:56:52;21.10;47.20
67820;DHT22;54618;52.018;5.576;2023-04-07T13:59:18;21.10;47.20
67820;DHT22;54618;52.018;5.576;2023-04-07T14:01:43;21.10;47.10
67820;DHT22;54618;52.018;5.576;2023-04-07T14:04:09;21.10;47.00
67820;DHT22;54618;52.018;5.576;2023-04-07T14:06:35;21.00;46.60
67820;DHT22;54618;52.018;5.576;2023-04-07T14:09:01;20.70;46.80
67820;DHT22;54618;52.018;5.576;2023-04-07T14:11:28;20.60;47.10
67820;DHT22;54618;52.018;5.576;2023-04-07T14:13:54;20.60;47.20
67820;DHT22;54618;52.018;5.576;2023-04-07T14:16:21;20.60;47.40
67820;DHT22;54618;52.018;5.576;2023-04-07T14:18:47;20.60;47.20
67820;DHT22;54618;52.018;5.576;2023-04-07T14:21:13;20.50;47.20
67820;DHT22;54618;52.018;5.576;2023-04-07T14:23:39;20.60;47.30
67820;DHT22;54618;52.018;5.576;2023-04-07T14:26:09;20.60;47.20
67820;DHT22;54618;52.018;5.576;2023-04-07T14:28:35;20.60;47.00
67820;DHT22;54618;52.018;5.576;2023-04-07T14:31:01;20.60;47.10
67820;DHT22;54618;52.018;5.576;2023-04-07T14:33:27;20.60;47.10
67820;DHT22;54618;52.018;5.576;2023-04-07T14:35:52;20.60;47.10
67820;DHT22;54618;52.018;5.576;2023-04-07T14:38:18;20.70;47.10
67820;DHT22;54618;52.018;5.576;2023-04-07T14:40:48;20.80;47.10
67820;DHT22;54618;52.018;5.576;2023-04-07T14:43:14;20.90;47.00
67820;DHT22;54618;52.018;5.576;2023-04-07T14:45:39;20.90;47.00
67820;DHT22;54618;52.018;5.576;2023-04-07T14:48:05;21.00;47.00
67820;DHT22;54618;52.018;5.576;2023-04-07T14:50:31;21.30;47.00
67820;DHT22;54618;52.018;5.576;2023-04-07T14:52:58;21.40;47.10
67820;DHT22;54618;52.018;5.576;2023-04-07T14:55:23;21.40;47.20
67820;DHT22;54618;52.018;5.576;2023-04-07T14:57:49;21.40;47.50
67820;DHT22;54618;52.018;5.576;2023-04-07T15:00:15;21.40;47.80
67820;DHT22;54618;52.018;5.576;2023-04-07T15:02:40;21.40;48.00
67820;DHT22;54618;52.018;5.576;2023-04-07T15:05:06;21.40;48.00
67820;DHT22;54618;52.018;5.576;2023-04-07T15:07:32;21.40;48.20
67820;DHT22;54618;52.018;5.576;2023-04-07T15:09:58;21.40;48.30
67820;DHT22;54618;52.018;5.576;2023-04-07T15:12:24;21.40;48.40
67820;DHT22;54618;52.018;5.576;2023-04-07T15:14:55;21.40;48.50
67820;DHT22;54618;52.018;5.576;2023-04-07T15:17:21;21.40;48.50
67820;DHT22;54618;52.018;5.576;2023-04-07T15:19:47;21.40;48.60
67820;DHT22;54618;52.018;5.576;2023-04-07T15:22:12;21.40;48.50
67820;DHT22;54618;52.018;5.576;2023-04-07T15:24:38;21.40;48.50
67820;DHT22;54618;52.018;5.576;2023-04-07T15:27:04;21.30;48.50
67820;DHT22;54618;52.018;5.576;2023-04-07T15:29:30;21.30;48.50
67820;DHT22;54618;52.018;5.576;2023-04-07T15:31:55;21.30;48.40
67820;DHT22;54618;52.018;5.576;2023-04-07T15:34:21;21.20;48.40
67820;DHT22;54618;52.018;5.576;2023-04-07T15:36:46;21.10;48.40
67820;DHT22;54618;52.018;5.576;2023-04-07T15:39:12;21.10;48.50
67820;DHT22;54618;52.018;5.576;2023-04-07T15:41:37;21.20;48.50